Time;durP1;ratioP1;P1;durP2;ratioP2;P2;SDS_P1;SDS_P2;PMS_P1;PMS_P2;Temp;Humidity;BMP_temperature;BMP_pressure;BME280_temperature;BME280_humidity;BME280_pressure;Samples;Min_cycle;Max_cycle;Signal;HPM_P1;HPM_P2
2020/12/10 00:01:33;;;;;;;6.57;5.45;;;21.10;39.90;;;;;;5028498;28;20509;-49
2020/12/10 00:03:59;;;;;;;5.38;4.88;;;21.20;40.00;;;;;;5050729;28;20046;-47
2020/12/10 00:06:24;;;;;;;5.88;5.30;;;21.10;40.00;;;;;;5031754;28;20025;-45
2020/12/10 00:08:50;;;;;;;5.45;4.95;;;21.10;40.00;;;;;;5047878;28;20028;-48
2020/12/10 00:11:16;;;;;;;5.70;5.20;;;21.10;40.00;;;;;;5039632;28;20033;-48
2020/12/10 00:13:42;;;;;;;5.63;5.10;;;21.10;40.00;;;;;;5024917;28;20053;-48
2020/12/10 00:16:11;;;;;;;5.18;4.70;;;21.10;40.00;;;;;;5047228;28;20064;-47
2020/12/10 00:18:37;;;;;;;4.88;4.35;;;21.10;40.00;;;;;;5030374;28;20056;-49
2020/12/10 00:21:02;;;;;;;5.35;4.90;;;21.00;40.00;;;;;;5050307;28;20047;-49
2020/12/10 00:23:28;;;;;;;6.32;5.18;;;21.00;40.00;;;;;;5047615;28;20474;-46
2020/12/10 00:25:53;;;;;;;5.32;4.80;;;21.00;40.00;;;;;;5042121;28;20037;-47
2020/12/10 00:28:19;;;;;;;5.75;5.07;;;21.00;40.00;;;;;;5044099;28;20083;-48
2020/12/10 00:30:44;;;;;;;5.82;5.07;;;21.00;40.00;;;;;;5041910;28;20096;-45
2020/12/10 00:33:10;;;;;;;5.13;4.72;;;20.90;40.00;;;;;;5047992;28;20038;-47
2020/12/10 00:35:36;;;;;;;5.07;4.65;;;20.90;39.90;;;;;;5046824;28;20371;-48
2020/12/10 00:38:01;;;;;;;5.03;4.53;;;20.90;40.00;;;;;;5042548;28;20060;-47
2020/12/10 00:40:27;;;;;;;5.13;4.60;;;20.90;40.00;;;;;;5028673;28;20777;-47
2020/12/10 00:42:52;;;;;;;5.55;4.75;;;20.90;40.00;;;;;;5042021;28;20517;-45
2020/12/10 00:45:18;;;;;;;5.13;4.18;;;20.80;39.90;;;;;;5050695;28;20021;-48
2020/12/10 00:47:43;;;;;;;5.55;5.03;;;20.80;40.00;;;;;;5044594;28;20096;-46
2020/12/10 00:50:09;;;;;;;5.22;4.68;;;20.80;40.00;;;;;;5048535;28;20518;-47
2020/12/10 00:52:35;;;;;;;4.93;4.43;;;20.80;40.10;;;;;;5029078;28;20115;-49
2020/12/10 00:55:00;;;;;;;4.63;4.15;;;20.80;40.10;;;;;;5045244;28;20593;-45
2020/12/10 00:57:26;;;;;;;4.97;4.45;;;20.70;40.00;;;;;;5038719;28;20110;-47
2020/12/10 00:59:51;;;;;;;5.40;4.85;;;20.70;40.00;;;;;;5031754;28;20047;-48
2020/12/10 01:02:17;;;;;;;4.85;4.35;;;20.70;40.00;;;;;;5049743;28;20080;-45
2020/12/10 01:04:42;;;;;;;6.05;4.70;;;20.80;40.10;;;;;;5045919;28;20094;-46
2020/12/10 01:07:08;;;;;;;5.55;5.05;;;20.70;40.00;;;;;;5024144;28;20025;-47
2020/12/10 01:09:33;;;;;;;4.72;4.32;;;20.70;40.00;;;;;;5071903;22;20049;-50
2020/12/10 01:12:03;;;;;;;4.53;4.13;;;20.60;40.00;;;;;;5067716;28;20055;-49
2020/12/10 01:14:29;;;;;;;5.03;4.55;;;20.70;40.00;;;;;;5067455;28;20029;-46
2020/12/10 01:16:54;;;;;;;5.30;4.80;;;20.60;40.10;;;;;;5069557;28;20024;-48
2020/12/10 01:19:20;;;;;;;5.03;4.53;;;20.60;40.10;;;;;;5069224;28;20607;-47
2020/12/10 01:21:46;;;;;;;5.38;4.57;;;20.60;40.60;;;;;;5069145;28;20047;-47
2020/12/10 01:24:11;;;;;;;4.88;4.47;;;20.50;40.10;;;;;;5068850;28;20074;-46
2020/12/10 01:26:38;;;;;;;6.20;5.55;;;20.50;40.10;;;;;;5068532;28;20028;-48
2020/12/10 01:29:04;;;;;;;5.47;4.35;;;20.50;40.10;;;;;;5067841;28;20039;-48
2020/12/10 01:31:31;;;;;;;4.95;4.55;;;20.50;40.00;;;;;;5069490;28;20551;-46
2020/12/10 01:33:56;;;;;;;4.43;4.03;;;20.50;40.10;;;;;;5068822;28;20048;-47
2020/12/10 01:36:24;;;;;;;5.15;4.65;;;20.50;40.10;;;;;;5068946;28;20025;-46
2020/12/10 01:38:51;;;;;;;4.53;4.10;;;20.50;40.10;;;;;;5069649;28;20074;-47
2020/12/10 01:41:18;;;;;;;5.13;4.63;;;20.50;40.60;;;;;;5069433;28;20204;-46
2020/12/10 01:43:44;;;;;;;5.05;4.43;;;20.50;40.10;;;;;;5070207;28;20195;-49
2020/12/10 01:46:10;;;;;;;5.20;4.38;;;20.50;40.10;;;;;;5072701;28;20500;-49
2020/12/10 01:48:36;;;;;;;5.20;4.53;;;20.50;40.10;;;;;;5054560;28;20033;-45
2020/12/10 01:51:03;;;;;;;5.13;4.70;;;20.40;40.10;;;;;;5073243;28;20047;-46
2020/12/10 01:53:29;;;;;;;4.70;4.28;;;20.40;40.10;;;;;;5067379;28;20087;-46
2020/12/10 01:55:55;;;;;;;5.88;4.78;;;20.40;40.10;;;;;;5072575;28;20020;-47
2020/12/10 01:58:20;;;;;;;4.60;4.15;;;20.40;40.00;;;;;;5071354;28;20029;-46
2020/12/10 02:00:46;;;;;;;4.63;4.22;;;20.40;40.00;;;;;;5055033;28;20016;-45
2020/12/10 02:03:11;;;;;;;4.85;4.43;;;20.40;40.00;;;;;;5072424;28;20576;-46
2020/12/10 02:05:45;;;;;;;5.20;4.32;;;20.40;40.50;;;;;;5072754;28;20041;-46
2020/12/10 02:08:11;;;;;;;4.95;4.05;;;20.40;40.00;;;;;;5055162;28;20099;-46
2020/12/10 02:10:37;;;;;;;4.93;4.45;;;20.40;40.00;;;;;;5063025;28;20029;-47
2020/12/10 02:13:03;;;;;;;4.68;4.28;;;20.40;40.10;;;;;;5073118;28;20060;-47
2020/12/10 02:15:33;;;;;;;4.78;3.78;;;20.30;40.00;;;;;;5073320;28;20804;-47
2020/12/10 02:17:59;;;;;;;6.18;4.15;;;20.30;40.00;;;;;;5073057;28;20073;-46
2020/12/10 02:20:25;;;;;;;4.57;4.18;;;20.30;40.00;;;;;;5059111;28;20108;-47
2020/12/10 02:22:57;;;;;;;4.85;4.43;;;20.30;39.80;;;;;;5054620;28;20104;-45
2020/12/10 02:25:23;;;;;;;4.45;4.05;;;20.30;40.00;;;;;;5071786;28;20473;-47
2020/12/10 02:27:48;;;;;;;4.40;4.00;;;20.30;40.00;;;;;;5054524;28;20032;-46
2020/12/10 02:30:14;;;;;;;7.65;4.25;;;20.30;40.00;;;;;;5071815;28;20174;-47
2020/12/10 02:32:39;;;;;;;4.30;3.90;;;20.30;39.90;;;;;;5065029;28;20025;-48
2020/12/10 02:35:05;;;;;;;6.10;4.80;;;20.30;40.00;;;;;;5071849;28;20037;-49
2020/12/10 02:37:31;;;;;;;4.57;4.15;;;20.30;40.10;;;;;;5071471;28;20032;-48
2020/12/10 02:39:56;;;;;;;4.15;3.80;;;20.20;40.00;;;;;;5072208;28;20433;-47
2020/12/10 02:42:23;;;;;;;4.43;4.03;;;20.20;40.00;;;;;;5050919;28;20508;-47
2020/12/10 02:44:48;;;;;;;4.47;4.07;;;20.20;39.90;;;;;;5072296;28;20584;-47
2020/12/10 02:47:14;;;;;;;4.88;4.35;;;20.20;40.00;;;;;;5062363;28;20108;-49
2020/12/10 02:49:39;;;;;;;4.47;3.95;;;20.20;40.00;;;;;;5071802;28;20051;-48
2020/12/10 02:52:05;;;;;;;3.75;3.45;;;20.20;40.00;;;;;;5061642;28;20067;-46
2020/12/10 02:54:30;;;;;;;4.57;3.55;;;20.20;40.00;;;;;;5070704;28;20033;-47
2020/12/10 02:56:59;;;;;;;4.55;4.15;;;20.10;40.00;;;;;;5071381;28;20063;-47
2020/12/10 02:59:24;;;;;;;3.65;3.35;;;20.10;40.00;;;;;;5065801;28;20024;-46
2020/12/10 03:01:53;;;;;;;4.68;4.10;;;20.10;40.00;;;;;;5064558;28;20025;-47
2020/12/10 03:04:18;;;;;;;4.68;4.28;;;20.10;40.00;;;;;;5069917;28;20058;-49
2020/12/10 03:06:44;;;;;;;6.18;4.00;;;20.10;40.00;;;;;;5072099;28;20484;-47
2020/12/10 03:09:10;;;;;;;4.20;3.80;;;20.10;40.00;;;;;;5048812;28;20112;-48
2020/12/10 03:11:35;;;;;;;4.50;3.78;;;20.10;40.00;;;;;;5070789;28;20032;-45
2020/12/10 03:14:01;;;;;;;4.72;3.60;;;20.10;39.90;;;;;;5068354;28;20031;-47
2020/12/10 03:16:27;;;;;;;4.13;3.72;;;20.10;39.90;;;;;;5068704;28;20040;-46
2020/12/10 03:18:52;;;;;;;4.07;3.67;;;20.10;40.00;;;;;;5069851;28;20067;-48
2020/12/10 03:21:18;;;;;;;3.95;3.55;;;20.10;39.90;;;;;;5071747;28;20092;-47
2020/12/10 03:23:43;;;;;;;4.88;3.63;;;20.10;39.90;;;;;;5069455;28;20757;-49
2020/12/10 03:26:09;;;;;;;4.38;3.88;;;20.10;40.00;;;;;;5071132;28;20090;-46
2020/12/10 03:28:34;;;;;;;4.57;3.40;;;20.10;39.90;;;;;;5069212;28;20032;-47
2020/12/10 03:31:00;;;;;;;4.28;3.88;;;20.00;39.90;;;;;;5071455;28;20031;-48
2020/12/10 03:33:26;;;;;;;3.80;3.42;;;20.10;40.00;;;;;;5070751;28;20093;-47
2020/12/10 03:35:51;;;;;;;3.97;3.40;;;20.00;39.90;;;;;;5070246;28;20478;-46
2020/12/10 03:38:17;;;;;;;4.07;2.95;;;20.00;39.80;;;;;;5068531;28;20036;-47
2020/12/10 03:40:42;;;;;;;3.70;3.40;;;20.00;39.90;;;;;;5070949;28;20032;-47
2020/12/10 03:43:08;;;;;;;4.75;3.60;;;20.00;39.80;;;;;;5070694;28;20020;-49
2020/12/10 03:45:34;;;;;;;3.85;3.42;;;20.00;39.90;;;;;;5069174;28;20035;-49
2020/12/10 03:47:59;;;;;;;4.10;3.50;;;20.00;39.90;;;;;;5068659;28;20025;-47
2020/12/10 03:50:25;;;;;;;4.03;3.63;;;20.00;39.80;;;;;;5052763;28;20034;-45
2020/12/10 03:52:50;;;;;;;4.20;3.80;;;20.00;39.60;;;;;;5064238;28;20058;-46
2020/12/10 03:55:16;;;;;;;3.35;3.13;;;19.90;39.70;;;;;;5067315;28;20329;-48
2020/12/10 03:57:41;;;;;;;3.28;2.97;;;19.90;39.80;;;;;;5070410;28;20082;-48
2020/12/10 04:00:07;;;;;;;3.75;3.10;;;19.90;39.80;;;;;;5066157;28;20024;-46
2020/12/10 04:02:33;;;;;;;3.22;2.92;;;19.90;39.80;;;;;;5070693;28;20505;-47
2020/12/10 04:04:58;;;;;;;4.03;3.30;;;19.90;39.80;;;;;;5068931;28;20035;-49
2020/12/10 04:07:24;;;;;;;3.25;2.83;;;19.90;39.90;;;;;;5072142;28;20032;-47
2020/12/10 04:09:49;;;;;;;3.13;2.92;;;19.90;39.90;;;;;;5056417;28;20040;-46
2020/12/10 04:12:15;;;;;;;3.65;3.25;;;19.90;39.90;;;;;;5071257;28;20036;-46
2020/12/10 04:14:40;;;;;;;3.15;2.85;;;19.80;39.70;;;;;;5063235;28;20035;-47
2020/12/10 04:17:06;;;;;;;2.97;2.35;;;19.90;39.90;;;;;;5070089;28;20025;-49
2020/12/10 04:19:31;;;;;;;3.58;2.88;;;19.90;39.90;;;;;;5070420;28;20467;-46
2020/12/10 04:21:57;;;;;;;2.85;2.65;;;19.80;39.80;;;;;;5050703;28;20485;-48
2020/12/10 04:24:22;;;;;;;2.95;2.67;;;19.90;39.80;;;;;;5070119;28;20621;-46
2020/12/10 04:26:48;;;;;;;3.92;2.97;;;19.80;39.80;;;;;;5052619;28;20028;-48
2020/12/10 04:29:13;;;;;;;3.38;3.08;;;19.80;39.80;;;;;;5070303;28;20048;-49
2020/12/10 04:31:41;;;;;;;3.15;2.85;;;19.80;39.80;;;;;;5050396;28;20126;-48
2020/12/10 04:34:07;;;;;;;3.42;3.13;;;19.80;39.90;;;;;;5067914;28;20493;-48
2020/12/10 04:36:33;;;;;;;3.13;2.45;;;19.80;40.00;;;;;;5069859;28;20043;-49
2020/12/10 04:38:58;;;;;;;3.17;2.88;;;19.80;39.80;;;;;;5070209;28;20032;-48
2020/12/10 04:41:26;;;;;;;2.88;2.47;;;19.80;39.80;;;;;;5070083;28;20048;-46
2020/12/10 04:43:53;;;;;;;3.72;2.85;;;19.80;39.70;;;;;;5069674;28;20027;-48
2020/12/10 04:46:19;;;;;;;3.42;3.00;;;19.80;39.80;;;;;;5067738;28;20036;-48
2020/12/10 04:48:46;;;;;;;2.83;2.60;;;19.70;39.80;;;;;;5069505;28;20505;-48
2020/12/10 04:51:13;;;;;;;4.60;3.20;;;19.70;39.80;;;;;;5064092;28;20040;-48
2020/12/10 04:53:39;;;;;;;4.32;2.92;;;19.70;39.90;;;;;;5063967;28;20032;-49
2020/12/10 04:56:06;;;;;;;4.22;3.22;;;19.70;39.90;;;;;;5072704;28;20116;-47
2020/12/10 04:58:33;;;;;;;3.47;3.17;;;19.70;39.90;;;;;;5072500;28;20021;-47
2020/12/10 05:01:00;;;;;;;2.63;2.40;;;19.70;39.80;;;;;;5071419;28;20025;-48
2020/12/10 05:03:26;;;;;;;3.08;2.78;;;19.70;39.80;;;;;;5069328;28;20039;-49
2020/12/10 05:05:52;;;;;;;4.20;3.22;;;19.70;40.00;;;;;;5068422;28;20115;-49
2020/12/10 05:08:31;;;;;;;2.72;2.50;;;19.60;39.80;;;;;;5073778;28;20652;-48
2020/12/10 05:10:57;;;;;;;2.85;2.55;;;19.70;39.90;;;;;;5075159;28;20044;-46
2020/12/10 05:13:23;;;;;;;3.22;2.67;;;19.60;39.90;;;;;;5075373;28;20020;-47
2020/12/10 05:15:49;;;;;;;2.90;2.70;;;19.60;39.90;;;;;;5071237;28;20031;-47
2020/12/10 05:18:16;;;;;;;2.50;2.30;;;19.60;39.90;;;;;;5068858;28;20021;-47
2020/12/10 05:20:44;;;;;;;2.40;2.08;;;19.60;39.80;;;;;;5067716;28;20087;-48
2020/12/10 05:23:15;;;;;;;2.97;2.67;;;19.60;39.90;;;;;;5065529;28;20112;-46
2020/12/10 05:25:51;;;;;;;2.92;2.72;;;19.60;39.80;;;;;;5069979;28;20025;-47
2020/12/10 05:28:18;;;;;;;3.15;2.28;;;19.60;39.70;;;;;;5072842;28;20032;-45
2020/12/10 05:30:45;;;;;;;3.08;2.78;;;19.60;39.80;;;;;;5073587;28;20039;-47
2020/12/10 05:33:12;;;;;;;3.03;2.65;;;19.60;39.70;;;;;;5072231;28;20024;-47
2020/12/10 05:35:38;;;;;;;3.50;2.75;;;19.50;39.80;;;;;;5066848;28;20524;-47
2020/12/10 05:38:10;;;;;;;2.33;2.00;;;19.50;39.80;;;;;;5072842;28;20024;-47
2020/12/10 05:40:35;;;;;;;;;;;19.50;39.80;;;;;;5072707;28;20040;-47
2020/12/10 05:43:01;;;;;;;2.60;2.08;;;19.50;39.80;;;;;;5073201;28;19923;-47
2020/12/10 05:45:28;;;;;;;3.20;2.67;;;19.50;39.80;;;;;;5070793;28;20044;-48
2020/12/10 05:48:01;;;;;;;2.47;2.17;;;19.50;39.90;;;;;;5065465;28;20658;-46
2020/12/10 05:50:31;;;;;;;3.03;2.80;;;19.50;39.90;;;;;;5073190;28;20040;-46
2020/12/10 05:53:11;;;;;;;2.65;2.45;;;19.50;39.90;;;;;;5071451;28;20028;-48
2020/12/10 05:55:39;;;;;;;2.80;2.15;;;19.50;39.90;;;;;;5054852;28;20200;-48
2020/12/10 05:58:06;;;;;;;2.92;2.65;;;19.50;39.90;;;;;;5071442;28;20020;-45
2020/12/10 06:00:32;;;;;;;3.03;2.75;;;19.50;39.80;;;;;;5071221;28;20036;-48
2020/12/10 06:02:59;;;;;;;2.90;2.67;;;19.40;39.80;;;;;;5070558;28;20036;-48
2020/12/10 06:05:25;;;;;;;2.63;2.08;;;19.40;39.70;;;;;;5072189;28;20021;-47
2020/12/10 06:08:00;;;;;;;3.80;2.58;;;19.40;39.80;;;;;;5070629;28;20432;-46
2020/12/10 06:10:26;;;;;;;2.80;2.60;;;19.40;39.70;;;;;;5071691;28;20123;-45
2020/12/10 06:12:52;;;;;;;2.83;2.60;;;19.40;39.70;;;;;;5072733;28;20111;-47
2020/12/10 06:15:29;;;;;;;2.58;2.28;;;19.40;39.70;;;;;;5068598;28;20112;-48
2020/12/10 06:18:01;;;;;;;2.25;2.00;;;19.40;40.00;;;;;;5072048;28;20032;-48
2020/12/10 06:20:34;;;;;;;2.72;2.17;;;19.50;40.20;;;;;;5067228;28;20461;-48
2020/12/10 06:23:42;;;;;;;2.05;1.88;;;19.50;40.20;;;;;;5072166;28;20025;-46
2020/12/10 06:26:23;;;;;;;2.90;1.88;;;19.60;39.90;;;;;;5071005;28;20016;-47
2020/12/10 06:28:48;;;;;;;2.28;2.08;;;19.80;39.60;;;;;;5052377;28;20406;-46
2020/12/10 06:31:14;;;;;;;2.15;1.95;;;19.90;39.50;;;;;;5066675;28;20040;-46
2020/12/10 06:33:44;;;;;;;2.33;1.75;;;20.00;39.30;;;;;;5068888;28;20017;-47
2020/12/10 06:36:24;;;;;;;1.85;1.70;;;20.10;39.20;;;;;;5070956;28;20052;-46
2020/12/10 06:38:51;;;;;;;1.98;1.88;;;20.20;39.00;;;;;;5067118;28;20078;-47
2020/12/10 06:41:16;;;;;;;2.78;1.27;;;20.30;39.00;;;;;;5046449;28;20029;-47
2020/12/10 06:43:42;;;;;;;2.08;1.90;;;20.30;38.90;;;;;;5072103;28;20086;-47
2020/12/10 06:46:08;;;;;;;1.77;1.67;;;20.40;38.80;;;;;;5070570;28;20079;-50
2020/12/10 06:48:39;;;;;;;2.00;1.75;;;20.40;39.30;;;;;;5070204;28;20051;-48
2020/12/10 06:51:16;;;;;;;2.25;1.77;;;20.40;38.70;;;;;;5054379;28;20576;-47
2020/12/10 06:54:00;;;;;;;2.20;2.00;;;20.40;38.70;;;;;;5049173;28;20055;-46
2020/12/10 06:56:30;;;;;;;2.78;2.15;;;20.50;38.70;;;;;;5071322;28;20493;-47
2020/12/10 06:59:01;;;;;;;2.50;2.25;;;20.50;38.70;;;;;;5071626;28;20032;-48
2020/12/10 07:01:38;;;;;;;2.25;1.80;;;20.50;38.70;;;;;;5067440;28;20041;-49
2020/12/10 07:07:13;;;;;;;3.20;2.40;;;20.60;38.50;;;;;;5064851;28;20033;-50
2020/12/10 07:09:49;;;;;;;3.78;2.60;;;20.70;38.40;;;;;;5076573;22;20056;-43
2020/12/10 07:12:31;;;;;;;3.38;2.90;;;20.70;38.30;;;;;;5015638;28;20064;-53
2020/12/10 07:15:17;;;;;;;3.25;3.05;;;20.70;38.30;;;;;;5010074;28;20101;-43
2020/12/10 07:17:49;;;;;;;3.13;2.75;;;20.70;38.40;;;;;;5013599;28;20746;-44
2020/12/10 07:20:14;;;;;;;3.80;3.50;;;20.70;38.40;;;;;;5017256;28;20030;-44
2020/12/10 07:22:40;;;;;;;3.67;3.28;;;20.70;38.50;;;;;;5009189;28;20478;-48
2020/12/10 07:25:05;;;;;;;4.68;3.42;;;20.70;38.50;;;;;;5018375;28;20113;-50
2020/12/10 07:27:32;;;;;;;3.90;3.50;;;20.60;38.60;;;;;;5020111;28;20644;-46
2020/12/10 07:29:58;;;;;;;4.20;3.80;;;20.60;38.60;;;;;;5012279;28;20116;-48
2020/12/10 07:32:23;;;;;;;4.03;3.63;;;20.50;39.20;;;;;;5019737;28;20045;-46
2020/12/10 07:34:49;;;;;;;3.63;3.33;;;20.50;38.70;;;;;;5014233;28;20075;-48
2020/12/10 07:37:16;;;;;;;4.05;3.67;;;20.40;38.80;;;;;;5013327;28;20555;-45
2020/12/10 07:39:42;;;;;;;4.18;3.72;;;20.40;38.90;;;;;;5008922;28;20422;-46
2020/12/10 07:42:08;;;;;;;4.35;3.55;;;20.40;39.00;;;;;;5011443;28;20030;-47
2020/12/10 07:44:35;;;;;;;4.22;3.83;;;20.30;39.00;;;;;;5024098;28;20112;-47
2020/12/10 07:47:02;;;;;;;3.63;3.28;;;20.30;39.10;;;;;;5012326;28;20441;-48
2020/12/10 07:49:32;;;;;;;4.47;3.78;;;20.20;39.10;;;;;;5013805;28;20030;-43
2020/12/10 07:52:15;;;;;;;5.35;4.03;;;20.20;38.90;;;;;;5018626;28;20037;-49
2020/12/10 07:54:49;;;;;;;4.32;3.92;;;20.10;38.70;;;;;;5014129;28;20056;-44
2020/12/10 07:57:37;;;;;;;4.80;4.32;;;20.10;38.80;;;;;;5008511;28;20522;-44
2020/12/10 08:00:12;;;;;;;4.95;3.92;;;20.10;38.90;;;;;;5024614;28;20056;-44
2020/12/10 08:02:41;;;;;;;3.88;3.42;;;20.10;38.90;;;;;;5017166;28;20037;-48
2020/12/10 08:05:16;;;;;;;6.20;4.80;;;20.00;38.70;;;;;;5025218;28;20033;-49
2020/12/10 08:07:47;;;;;;;6.55;5.15;;;20.00;38.30;;;;;;5002250;28;20091;-47
2020/12/10 08:10:24;;;;;;;8.02;5.38;;;20.00;37.60;;;;;;5012432;28;20478;-46
2020/12/10 08:13:14;;;;;;;5.85;4.95;;;20.00;38.40;;;;;;5010964;28;20482;-47
2020/12/10 08:15:44;;;;;;;6.45;4.85;;;20.00;38.50;;;;;;5012790;28;20398;-50
2020/12/10 08:18:13;;;;;;;6.57;5.10;;;20.00;38.60;;;;;;5020417;28;20026;-49
2020/12/10 08:20:45;;;;;;;5.57;4.50;;;20.00;38.60;;;;;;5014805;28;20035;-44
2020/12/10 08:23:11;;;;;;;;;;;19.90;37.70;;;;;;5014851;28;20100;-45
2020/12/10 08:25:37;;;;;;;6.57;5.60;;;19.90;36.90;;;;;;5017888;28;20001;-44
2020/12/10 08:28:04;;;;;;;8.43;5.53;;;19.90;38.00;;;;;;5015317;28;20033;-49
2020/12/10 08:30:30;;;;;;;7.18;5.20;;;19.90;38.10;;;;;;5012011;28;20034;-42
2020/12/10 08:33:00;;;;;;;4.78;4.28;;;20.10;38.50;;;;;;5018448;28;20017;-40
2020/12/10 08:35:26;;;;;;;5.88;5.18;;;20.30;38.10;;;;;;4997197;28;20026;-46
2020/12/10 08:37:52;;;;;;;6.03;4.45;;;20.40;38.20;;;;;;5011021;28;20030;-42
2020/12/10 08:40:27;;;;;;;7.00;5.15;;;20.50;38.40;;;;;;5017395;28;20079;-42
2020/12/10 08:42:53;;;;;;;6.13;4.78;;;20.60;38.30;;;;;;5025422;28;20033;-42
2020/12/10 08:45:36;;;;;;;5.10;4.53;;;20.70;38.20;;;;;;5014217;28;20084;-41
2020/12/10 08:48:02;;;;;;;5.85;4.40;;;20.80;38.30;;;;;;5015098;28;20029;-46
2020/12/10 08:50:29;;;;;;;5.32;4.57;;;20.80;38.60;;;;;;5015071;28;20037;-42
2020/12/10 08:53:01;;;;;;;5.38;4.70;;;20.90;38.40;;;;;;5023743;28;20108;-43
2020/12/10 08:55:28;;;;;;;5.45;4.85;;;21.00;38.50;;;;;;5020705;28;20418;-39
2020/12/10 08:57:56;;;;;;;5.68;4.55;;;21.00;38.50;;;;;;5020706;28;20037;-45
2020/12/10 09:00:21;;;;;;;4.65;4.10;;;20.90;38.70;;;;;;5020344;28;20030;-43
2020/12/10 09:02:47;;;;;;;6.20;4.50;;;21.00;38.70;;;;;;5021573;28;20095;-42
2020/12/10 09:05:12;;;;;;;5.00;4.50;;;21.10;38.80;;;;;;5014297;28;20120;-46
2020/12/10 09:07:38;;;;;;;8.05;4.88;;;21.10;38.70;;;;;;5015112;28;20116;-43
2020/12/10 09:10:06;;;;;;;6.25;5.05;;;21.10;38.80;;;;;;5025470;28;20018;-45
2020/12/10 09:12:32;;;;;;;7.07;5.45;;;21.10;38.80;;;;;;5021390;28;20026;-41
2020/12/10 09:14:57;;;;;;;5.32;4.82;;;21.20;38.80;;;;;;5016189;28;20044;-40
2020/12/10 09:17:23;;;;;;;5.68;5.18;;;21.10;38.60;;;;;;5013500;28;20479;-39
2020/12/10 09:19:48;;;;;;;4.95;4.53;;;21.10;38.70;;;;;;5022354;28;20083;-42
2020/12/10 09:22:14;;;;;;;6.15;4.57;;;21.00;38.80;;;;;;5011575;28;20037;-42
2020/12/10 09:24:39;;;;;;;5.40;4.90;;;21.10;39.40;;;;;;5025212;28;20450;-43
2020/12/10 09:27:08;;;;;;;6.50;5.03;;;21.10;38.90;;;;;;5013832;28;20037;-40
2020/12/10 09:29:35;;;;;;;6.45;5.13;;;21.10;38.80;;;;;;5017743;28;20061;-44
2020/12/10 09:32:01;;;;;;;5.60;5.00;;;21.20;39.10;;;;;;5014523;28;20487;-39
2020/12/10 09:34:27;;;;;;;5.53;4.97;;;21.20;39.00;;;;;;5011437;28;20029;-40
2020/12/10 09:36:52;;;;;;;5.60;4.82;;;21.30;39.10;;;;;;5013524;28;20075;-43
2020/12/10 09:39:18;;;;;;;6.93;4.75;;;21.20;39.00;;;;;;5011006;28;20525;-43
2020/12/10 09:41:44;;;;;;;5.85;4.55;;;21.30;39.10;;;;;;5011032;28;20030;-41
2020/12/10 09:44:10;;;;;;;4.80;4.07;;;21.30;38.90;;;;;;5014696;28;20038;-43
2020/12/10 09:46:36;;;;;;;7.07;5.28;;;21.20;39.10;;;;;;5006487;28;20033;-37
2020/12/10 09:49:02;;;;;;;5.38;4.88;;;21.30;39.10;;;;;;5014338;28;20121;-40
2020/12/10 09:51:34;;;;;;;6.95;4.65;;;21.20;39.10;;;;;;5010304;28;20157;-40
2020/12/10 09:54:06;;;;;;;5.53;5.03;;;21.10;39.00;;;;;;5024635;28;20112;-40
2020/12/10 09:56:55;;;;;;;6.57;4.85;;;21.00;38.90;;;;;;5014497;28;20026;-41
2020/12/10 09:59:20;;;;;;;6.72;4.60;;;21.00;38.10;;;;;;5022185;28;20466;-40
2020/12/10 10:01:45;;;;;;;7.55;5.88;;;20.90;38.10;;;;;;5012844;28;20057;-41
2020/12/10 10:04:11;;;;;;;7.85;5.97;;;20.90;37.80;;;;;;5022922;28;20113;-39
2020/12/10 10:06:36;;;;;;;5.93;5.32;;;20.80;37.30;;;;;;5014982;28;20174;-39
2020/12/10 10:09:04;;;;;;;8.00;6.22;;;20.80;37.10;;;;;;5017380;28;20037;-40
2020/12/10 10:11:30;;;;;;;7.00;6.18;;;20.80;36.90;;;;;;4981346;28;1084310;-41
2020/12/10 10:13:55;;;;;;;8.15;6.63;;;20.80;36.30;;;;;;5028297;28;20660;-40
2020/12/10 10:16:27;;;;;;;9.68;7.03;;;20.80;36.00;;;;;;5021031;28;20022;-39
2020/12/10 10:18:53;;;;;;;9.30;6.65;;;20.70;35.60;;;;;;5018452;28;20430;-40
2020/12/10 10:21:19;;;;;;;9.27;6.88;;;20.70;35.70;;;;;;5023645;28;20026;-44
2020/12/10 10:23:45;;;;;;;6.82;5.90;;;20.80;36.20;;;;;;5025569;28;20041;-43
2020/12/10 10:26:11;;;;;;;6.10;5.25;;;20.80;36.80;;;;;;5018772;28;20021;-41
2020/12/10 10:28:36;;;;;;;5.60;5.10;;;20.80;37.20;;;;;;5024066;28;20108;-42
2020/12/10 10:31:02;;;;;;;5.65;5.10;;;20.80;37.40;;;;;;5025895;28;20064;-41
2020/12/10 10:33:28;;;;;;;5.82;5.22;;;20.80;37.50;;;;;;5022254;28;20452;-39
2020/12/10 10:35:53;;;;;;;6.68;5.15;;;20.80;37.60;;;;;;5023520;28;20079;-42
2020/12/10 10:38:20;;;;;;;7.50;5.22;;;20.80;37.70;;;;;;5018668;28;20040;-39
2020/12/10 10:40:46;;;;;;;5.70;4.95;;;20.80;37.70;;;;;;5024239;28;20407;-41
2020/12/10 10:43:11;;;;;;;5.95;4.60;;;20.80;37.90;;;;;;5017633;28;20022;-42
2020/12/10 10:45:37;;;;;;;6.97;5.18;;;20.80;37.90;;;;;;5017069;28;20628;-41
2020/12/10 10:48:03;;;;;;;5.88;4.95;;;20.70;38.00;;;;;;5004650;28;20088;-42
2020/12/10 10:50:28;;;;;;;5.00;4.50;;;20.70;38.10;;;;;;5013255;28;20022;-42
2020/12/10 10:52:54;;;;;;;6.07;5.15;;;20.70;38.10;;;;;;5011646;28;21522;-35
2020/12/10 10:55:20;;;;;;;5.82;4.53;;;20.70;38.10;;;;;;5008589;28;20059;-39
2020/12/10 10:57:45;;;;;;;5.20;4.40;;;20.70;38.20;;;;;;5001533;28;20149;-39
2020/12/10 11:00:11;;;;;;;6.68;5.03;;;20.70;38.30;;;;;;5017959;28;20451;-37
2020/12/10 11:02:36;;;;;;;5.53;4.70;;;20.70;38.30;;;;;;5021760;28;20041;-40
2020/12/10 11:05:02;;;;;;;4.97;4.47;;;20.70;38.30;;;;;;4999304;28;20076;-41
2020/12/10 11:07:28;;;;;;;4.38;3.78;;;20.80;38.40;;;;;;5008717;28;20517;-43
2020/12/10 11:09:53;;;;;;;3.85;3.45;;;20.90;38.50;;;;;;5013563;28;20144;-46
2020/12/10 11:12:19;;;;;;;4.20;3.42;;;21.10;38.60;;;;;;5009757;28;20490;-46
2020/12/10 11:14:45;;;;;;;4.18;3.88;;;21.20;38.30;;;;;;4998786;28;20072;-46
2020/12/10 11:17:11;;;;;;;4.65;4.20;;;21.40;38.20;;;;;;5019258;28;20030;-45
2020/12/10 11:19:37;;;;;;;4.22;3.83;;;21.50;38.00;;;;;;5020648;28;20029;-47
2020/12/10 11:22:02;;;;;;;3.72;3.33;;;21.60;38.10;;;;;;5020874;28;20028;-47
2020/12/10 11:24:28;;;;;;;4.28;3.42;;;21.70;38.10;;;;;;5027543;28;20033;-49
2020/12/10 11:26:55;;;;;;;4.97;3.75;;;21.80;38.00;;;;;;5011336;28;20037;-46
2020/12/10 11:29:20;;;;;;;3.70;3.40;;;21.80;38.00;;;;;;5005972;28;20043;-49
2020/12/10 11:31:46;;;;;;;3.30;3.00;;;21.80;38.10;;;;;;5010726;28;20686;-46
2020/12/10 11:34:12;;;;;;;4.53;3.50;;;21.80;38.10;;;;;;5012978;28;20533;-45
2020/12/10 11:36:37;;;;;;;4.05;3.65;;;21.80;38.10;;;;;;5013283;28;20534;-45
2020/12/10 11:39:03;;;;;;;4.05;3.58;;;21.80;38.20;;;;;;5024278;28;20084;-49
2020/12/10 11:41:29;;;;;;;3.42;2.92;;;21.90;38.40;;;;;;5007888;28;20033;-48
2020/12/10 11:43:55;;;;;;;3.70;3.30;;;21.80;38.40;;;;;;5015269;28;20046;-47
2020/12/10 11:46:20;;;;;;;3.78;3.38;;;21.80;38.30;;;;;;5004364;28;20030;-45
2020/12/10 11:48:46;;;;;;;4.18;3.80;;;21.80;38.40;;;;;;5012308;28;20040;-46
2020/12/10 11:51:12;;;;;;;3.78;3.42;;;21.80;38.40;;;;;;5017198;28;20037;-44
2020/12/10 11:53:39;;;;;;;4.57;4.05;;;21.80;38.40;;;;;;5013876;28;20056;-43
2020/12/10 11:56:05;;;;;;;3.55;3.22;;;21.80;38.70;;;;;;5011557;28;20455;-46
2020/12/10 11:58:33;;;;;;;4.88;3.58;;;21.80;38.40;;;;;;5008120;28;20061;-45
2020/12/10 12:00:59;;;;;;;4.78;3.60;;;21.80;38.60;;;;;;5017308;28;20058;-46
2020/12/10 12:03:25;;;;;;;4.82;4.20;;;21.80;38.70;;;;;;5021136;28;20555;-48
2020/12/10 12:05:51;;;;;;;4.63;4.22;;;21.70;38.80;;;;;;5015420;28;20065;-46
2020/12/10 12:08:16;;;;;;;5.20;4.70;;;21.70;38.80;;;;;;5016464;28;20096;-41
2020/12/10 12:10:42;;;;;;;5.68;4.30;;;21.70;38.90;;;;;;5014468;28;20049;-46
2020/12/10 12:13:07;;;;;;;4.90;4.43;;;21.80;39.20;;;;;;5017610;28;20030;-46
2020/12/10 12:15:33;;;;;;;5.80;5.30;;;21.80;39.00;;;;;;5010209;28;20033;-45
2020/12/10 12:17:58;;;;;;;6.97;5.75;;;21.70;39.10;;;;;;5012300;28;20030;-42
2020/12/10 12:20:24;;;;;;;6.22;5.63;;;21.70;39.30;;;;;;5008931;28;20068;-44
2020/12/10 12:22:51;;;;;;;8.27;5.32;;;21.70;39.40;;;;;;4997776;28;20052;-48
2020/12/10 12:25:17;;;;;;;7.50;6.00;;;21.60;39.30;;;;;;5012961;28;20045;-49
2020/12/10 12:27:42;;;;;;;7.47;6.30;;;21.60;39.90;;;;;;5015485;28;20104;-46
2020/12/10 12:30:08;;;;;;;6.65;5.75;;;21.70;39.30;;;;;;5013954;28;20034;-47
2020/12/10 12:32:34;;;;;;;7.38;6.25;;;21.80;39.30;;;;;;5019444;28;20042;-46
2020/12/10 12:34:59;;;;;;;7.45;6.68;;;21.80;39.10;;;;;;5025139;28;20444;-47
2020/12/10 12:37:26;;;;;;;9.98;6.10;;;21.90;39.10;;;;;;5023733;28;20096;-46
2020/12/10 12:39:52;;;;;;;8.05;6.13;;;21.90;39.10;;;;;;5019822;28;20390;-45
2020/12/10 12:42:18;;;;;;;9.18;6.03;;;22.00;38.90;;;;;;5020106;28;20037;-45
2020/12/10 12:44:43;;;;;;;8.13;5.75;;;22.00;38.80;;;;;;5019043;28;20044;-49
2020/12/10 12:47:09;;;;;;;7.22;6.32;;;22.00;38.80;;;;;;5023834;28;20029;-46
2020/12/10 12:49:35;;;;;;;8.60;6.32;;;21.90;38.90;;;;;;5015677;28;20118;-44
2020/12/10 12:52:00;;;;;;;8.43;6.38;;;21.90;38.90;;;;;;5017497;28;20509;-48